sensor_id;sensor_type;location;lat;lon;timestamp;P1;durP1;ratioP1;P2;durP2;ratioP2
72645;SDS011;60687;53.876;10.674;2023-04-25T00:04:10;6.60;;;2.70;;
72645;SDS011;60687;53.876;10.674;2023-04-25T00:14:14;8.50;;;3.03;;
72645;SDS011;60687;53.876;10.674;2023-04-25T00:24:17;8.90;;;2.70;;
72645;SDS011;60687;53.876;10.674;2023-04-25T00:34:21;8.30;;;2.87;;
72645;SDS011;60687;53.876;10.674;2023-04-25T00:44:23;8.23;;;3.38;;
72645;SDS011;60687;53.876;10.674;2023-04-25T00:54:28;8.73;;;3.13;;
72645;SDS011;60687;53.876;10.674;2023-04-25T01:04:31;13.63;;;3.13;;
72645;SDS011;60687;53.876;10.674;2023-04-25T01:14:35;11.93;;;2.70;;
72645;SDS011;60687;53.876;10.674;2023-04-25T01:24:41;10.32;;;2.90;;
72645;SDS011;60687;53.876;10.674;2023-04-25T01:34:43;9.60;;;2.00;;
72645;SDS011;60687;53.876;10.674;2023-04-25T01:44:47;6.97;;;2.27;;
72645;SDS011;60687;53.876;10.674;2023-04-25T01:54:50;10.48;;;3.00;;
72645;SDS011;60687;53.876;10.674;2023-04-25T02:04:54;12.00;;;2.53;;
72645;SDS011;60687;53.876;10.674;2023-04-25T02:15:00;11.47;;;3.00;;
72645;SDS011;60687;53.876;10.674;2023-04-25T02:25:15;9.20;;;2.50;;
72645;SDS011;60687;53.876;10.674;2023-04-25T02:35:21;9.82;;;2.88;;
72645;SDS011;60687;53.876;10.674;2023-04-25T02:45:25;13.60;;;2.73;;
72645;SDS011;60687;53.876;10.674;2023-04-25T02:55:27;12.70;;;2.60;;
72645;SDS011;60687;53.876;10.674;2023-04-25T03:05:32;10.32;;;3.00;;
72645;SDS011;60687;53.876;10.674;2023-04-25T03:15:35;12.93;;;2.80;;
72645;SDS011;60687;53.876;10.674;2023-04-25T03:25:38;9.57;;;2.30;;
72645;SDS011;60687;53.876;10.674;2023-04-25T03:35:41;10.85;;;2.00;;
72645;SDS011;60687;53.876;10.674;2023-04-25T03:45:45;11.23;;;2.37;;
72645;SDS011;60687;53.876;10.674;2023-04-25T03:55:48;13.97;;;2.97;;
72645;SDS011;60687;53.876;10.674;2023-04-25T04:05:52;12.40;;;2.75;;
72645;SDS011;60687;53.876;10.674;2023-04-25T04:15:55;13.07;;;2.70;;
72645;SDS011;60687;53.876;10.674;2023-04-25T04:25:59;9.80;;;2.10;;
72645;SDS011;60687;53.876;10.674;2023-04-25T04:36:13;10.20;;;2.67;;
72645;SDS011;60687;53.876;10.674;2023-04-25T04:46:18;8.52;;;2.33;;
72645;SDS011;60687;53.876;10.674;2023-04-25T04:56:41;9.57;;;3.03;;
72645;SDS011;60687;53.876;10.674;2023-04-25T05:07:20;11.47;;;3.20;;
72645;SDS011;60687;53.876;10.674;2023-04-25T05:17:49;12.73;;;3.28;;
72645;SDS011;60687;53.876;10.674;2023-04-25T05:28:06;14.63;;;2.73;;
72645;SDS011;60687;53.876;10.674;2023-04-25T05:38:23;8.50;;;2.17;;
72645;SDS011;60687;53.876;10.674;2023-04-25T05:49:03;13.18;;;3.22;;
72645;SDS011;60687;53.876;10.674;2023-04-25T05:59:31;9.07;;;2.30;;
72645;SDS011;60687;53.876;10.674;2023-04-25T06:09:35;11.17;;;3.00;;
72645;SDS011;60687;53.876;10.674;2023-04-25T06:19:39;10.43;;;2.30;;
72645;SDS011;60687;53.876;10.674;2023-04-25T06:29:44;12.05;;;2.10;;
72645;SDS011;60687;53.876;10.674;2023-04-25T06:39:47;8.37;;;2.23;;
72645;SDS011;60687;53.876;10.674;2023-04-25T06:49:51;12.37;;;2.47;;
72645;SDS011;60687;53.876;10.674;2023-04-25T06:59:55;11.30;;;2.22;;
72645;SDS011;60687;53.876;10.674;2023-04-25T07:09:59;8.53;;;2.20;;
72645;SDS011;60687;53.876;10.674;2023-04-25T07:20:03;8.83;;;2.30;;
72645;SDS011;60687;53.876;10.674;2023-04-25T07:30:11;9.77;;;2.42;;
72645;SDS011;60687;53.876;10.674;2023-04-25T07:40:14;10.48;;;1.75;;
72645;SDS011;60687;53.876;10.674;2023-04-25T07:50:22;9.70;;;2.20;;
72645;SDS011;60687;53.876;10.674;2023-04-25T08:00:25;10.30;;;2.40;;
72645;SDS011;60687;53.876;10.674;2023-04-25T08:10:44;11.68;;;1.55;;
72645;SDS011;60687;53.876;10.674;2023-04-25T08:20:50;9.00;;;2.20;;
72645;SDS011;60687;53.876;10.674;2023-04-25T08:30:54;9.20;;;2.37;;
72645;SDS011;60687;53.876;10.674;2023-04-25T08:40:57;8.55;;;2.33;;
72645;SDS011;60687;53.876;10.674;2023-04-25T08:51:03;9.30;;;1.93;;
72645;SDS011;60687;53.876;10.674;2023-04-25T09:01:09;13.37;;;2.50;;
72645;SDS011;60687;53.876;10.674;2023-04-25T09:11:21;7.97;;;1.80;;
72645;SDS011;60687;53.876;10.674;2023-04-25T09:21:25;8.23;;;2.10;;
72645;SDS011;60687;53.876;10.674;2023-04-25T09:31:32;8.43;;;2.00;;
72645;SDS011;60687;53.876;10.674;2023-04-25T09:41:37;10.60;;;2.53;;
72645;SDS011;60687;53.876;10.674;2023-04-25T09:51:43;6.55;;;1.45;;
72645;SDS011;60687;53.876;10.674;2023-04-25T10:01:56;7.27;;;1.70;;
72645;SDS011;60687;53.876;10.674;2023-04-25T10:12:10;8.50;;;1.80;;
72645;SDS011;60687;53.876;10.674;2023-04-25T10:22:14;7.65;;;1.75;;
72645;SDS011;60687;53.876;10.674;2023-04-25T10:32:21;8.17;;;1.50;;
72645;SDS011;60687;53.876;10.674;2023-04-25T10:42:23;6.40;;;1.50;;
72645;SDS011;60687;53.876;10.674;2023-04-25T10:52:29;6.88;;;2.00;;
72645;SDS011;60687;53.876;10.674;2023-04-25T11:02:36;8.60;;;2.08;;
72645;SDS011;60687;53.876;10.674;2023-04-25T11:12:41;6.63;;;1.70;;
72645;SDS011;60687;53.876;10.674;2023-04-25T11:22:44;7.67;;;1.83;;
72645;SDS011;60687;53.876;10.674;2023-04-25T11:32:48;8.15;;;1.80;;
72645;SDS011;60687;53.876;10.674;2023-04-25T11:42:52;7.03;;;1.77;;
72645;SDS011;60687;53.876;10.674;2023-04-25T11:52:56;7.07;;;1.53;;
72645;SDS011;60687;53.876;10.674;2023-04-25T12:02:58;7.75;;;1.60;;
72645;SDS011;60687;53.876;10.674;2023-04-25T12:13:17;9.77;;;1.87;;
72645;SDS011;60687;53.876;10.674;2023-04-25T12:23:24;7.13;;;1.43;;
72645;SDS011;60687;53.876;10.674;2023-04-25T12:33:29;7.22;;;1.60;;
72645;SDS011;60687;53.876;10.674;2023-04-25T12:43:35;7.53;;;1.40;;
72645;SDS011;60687;53.876;10.674;2023-04-25T12:53:38;6.40;;;1.50;;
72645;SDS011;60687;53.876;10.674;2023-04-25T13:03:41;4.82;;;1.50;;
72645;SDS011;60687;53.876;10.674;2023-04-25T13:13:45;7.15;;;1.35;;
72645;SDS011;60687;53.876;10.674;2023-04-25T13:23:47;5.97;;;1.67;;
72645;SDS011;60687;53.876;10.674;2023-04-25T13:33:50;6.73;;;1.50;;
72645;SDS011;60687;53.876;10.674;2023-04-25T13:43:52;7.13;;;1.45;;
72645;SDS011;60687;53.876;10.674;2023-04-25T13:53:56;6.03;;;2.10;;
72645;SDS011;60687;53.876;10.674;2023-04-25T14:03:58;8.03;;;1.90;;
72645;SDS011;60687;53.876;10.674;2023-04-25T14:14:03;9.55;;;2.10;;
72645;SDS011;60687;53.876;10.674;2023-04-25T14:24:20;6.57;;;1.60;;
72645;SDS011;60687;53.876;10.674;2023-04-25T14:34:28;11.40;;;1.90;;
72645;SDS011;60687;53.876;10.674;2023-04-25T14:44:45;9.07;;;1.90;;
72645;SDS011;60687;53.876;10.674;2023-04-25T14:54:49;5.53;;;1.60;;
72645;SDS011;60687;53.876;10.674;2023-04-25T15:04:52;5.90;;;1.43;;
72645;SDS011;60687;53.876;10.674;2023-04-25T15:14:56;6.23;;;1.70;;
72645;SDS011;60687;53.876;10.674;2023-04-25T15:24:58;5.90;;;1.42;;
72645;SDS011;60687;53.876;10.674;2023-04-25T15:35:03;6.63;;;1.50;;
72645;SDS011;60687;53.876;10.674;2023-04-25T15:45:07;6.50;;;1.60;;
72645;SDS011;60687;53.876;10.674;2023-04-25T15:55:13;9.60;;;1.90;;
72645;SDS011;60687;53.876;10.674;2023-04-25T16:05:19;9.00;;;2.40;;
72645;SDS011;60687;53.876;10.674;2023-04-25T16:15:23;6.23;;;1.80;;
72645;SDS011;60687;53.876;10.674;2023-04-25T16:25:26;8.45;;;2.28;;
72645;SDS011;60687;53.876;10.674;2023-04-25T16:35:29;9.47;;;2.00;;
72645;SDS011;60687;53.876;10.674;2023-04-25T16:45:31;4.80;;;1.87;;
72645;SDS011;60687;53.876;10.674;2023-04-25T16:55:35;8.38;;;2.22;;
72645;SDS011;60687;53.876;10.674;2023-04-25T17:05:38;9.35;;;2.08;;
72645;SDS011;60687;53.876;10.674;2023-04-25T17:15:41;6.70;;;1.93;;
72645;SDS011;60687;53.876;10.674;2023-04-25T17:25:44;6.93;;;1.50;;
72645;SDS011;60687;53.876;10.674;2023-04-25T17:35:51;9.80;;;1.55;;
72645;SDS011;60687;53.876;10.674;2023-04-25T17:45:53;8.87;;;2.40;;
72645;SDS011;60687;53.876;10.674;2023-04-25T17:55:57;6.23;;;1.67;;
72645;SDS011;60687;53.876;10.674;2023-04-25T18:06:03;6.97;;;1.92;;
72645;SDS011;60687;53.876;10.674;2023-04-25T18:16:09;7.80;;;1.90;;
72645;SDS011;60687;53.876;10.674;2023-04-25T18:26:12;7.27;;;1.83;;
72645;SDS011;60687;53.876;10.674;2023-04-25T18:36:16;9.30;;;2.28;;
72645;SDS011;60687;53.876;10.674;2023-04-25T18:46:19;6.97;;;1.55;;
72645;SDS011;60687;53.876;10.674;2023-04-25T18:56:25;6.57;;;1.97;;
72645;SDS011;60687;53.876;10.674;2023-04-25T19:06:28;5.20;;;1.40;;
72645;SDS011;60687;53.876;10.674;2023-04-25T19:16:37;6.05;;;1.60;;
72645;SDS011;60687;53.876;10.674;2023-04-25T19:26:40;6.63;;;1.97;;
72645;SDS011;60687;53.876;10.674;2023-04-25T19:36:45;7.47;;;1.77;;
72645;SDS011;60687;53.876;10.674;2023-04-25T19:46:51;6.40;;;1.75;;
72645;SDS011;60687;53.876;10.674;2023-04-25T19:56:57;8.50;;;1.47;;
72645;SDS011;60687;53.876;10.674;2023-04-25T20:07:00;9.03;;;1.80;;
72645;SDS011;60687;53.876;10.674;2023-04-25T20:17:04;6.82;;;1.80;;
72645;SDS011;60687;53.876;10.674;2023-04-25T20:27:06;8.40;;;2.13;;
72645;SDS011;60687;53.876;10.674;2023-04-25T20:37:10;5.90;;;1.80;;
72645;SDS011;60687;53.876;10.674;2023-04-25T20:47:12;7.40;;;2.03;;
72645;SDS011;60687;53.876;10.674;2023-04-25T20:57:18;6.47;;;1.70;;
72645;SDS011;60687;53.876;10.674;2023-04-25T21:07:20;8.97;;;2.60;;
72645;SDS011;60687;53.876;10.674;2023-04-25T21:17:24;9.43;;;2.20;;
72645;SDS011;60687;53.876;10.674;2023-04-25T21:27:28;6.85;;;2.10;;
72645;SDS011;60687;53.876;10.674;2023-04-25T21:37:32;5.27;;;1.70;;
72645;SDS011;60687;53.876;10.674;2023-04-25T21:47:35;7.07;;;1.90;;
72645;SDS011;60687;53.876;10.674;2023-04-25T21:57:39;7.40;;;2.00;;
72645;SDS011;60687;53.876;10.674;2023-04-25T22:07:42;8.43;;;2.15;;
72645;SDS011;60687;53.876;10.674;2023-04-25T22:17:46;6.53;;;2.00;;
72645;SDS011;60687;53.876;10.674;2023-04-25T22:27:48;8.23;;;2.10;;
72645;SDS011;60687;53.876;10.674;2023-04-25T22:37:55;6.70;;;2.10;;
72645;SDS011;60687;53.876;10.674;2023-04-25T22:47:57;8.43;;;1.97;;
72645;SDS011;60687;53.876;10.674;2023-04-25T22:58:01;6.30;;;1.43;;
72645;SDS011;60687;53.876;10.674;2023-04-25T23:08:07;8.25;;;2.17;;
72645;SDS011;60687;53.876;10.674;2023-04-25T23:18:11;5.87;;;1.83;;
72645;SDS011;60687;53.876;10.674;2023-04-25T23:28:15;7.03;;;2.00;;
72645;SDS011;60687;53.876;10.674;2023-04-25T23:38:19;7.07;;;2.03;;
72645;SDS011;60687;53.876;10.674;2023-04-25T23:48:23;5.90;;;2.38;;
72645;SDS011;60687;53.876;10.674;2023-04-25T23:58:27;7.57;;;1.90;;
